Woodmere, Ohio
Current Conditions -  °F | °C
As of 7:45 AM on Friday 24 Oct 2014 (Local Time) from KCGF Reporting Station
Broken Clouds Broken Clouds  
Wind Chill:   Ceiling: 20000
Heat Index:   Visibility: 10mi
Dew Point:   Wind: 7mph
Humidity: 87%   Direction: 230°SW
Pressure: 30.1"   Gusts: NA
Location:  41.4698°N, 81.5121°W
Report Text: KCGF 241145Z 23006KT 10SM SCT100 BKN200 08/06 A3010
Loading
Personal Weather Stations






























Interactive Weather Map
Tropical Storm Tracking
New forecast layout! Learn more

10-Day Weather Forecast

Advertisements
Track Severe Weather on mobile